createdAt,value
2022-11-21T00:00:34.283Z,0.40
2022-11-21T00:03:10.771Z,0.40
2022-11-21T00:05:48.164Z,0.43
2022-11-21T00:08:23.058Z,0.40
2022-11-21T00:11:00.047Z,0.40
2022-11-21T00:13:34.943Z,0.43
2022-11-21T00:16:14.467Z,0.40
2022-11-21T00:18:49.384Z,0.30
2022-11-21T00:21:24.249Z,0.40
2022-11-21T00:23:59.126Z,0.40
2022-11-21T00:26:34.004Z,0.40
2022-11-21T00:29:09.566Z,0.40
2022-11-21T00:31:44.448Z,0.40
2022-11-21T00:34:19.358Z,0.40
2022-11-21T00:36:54.260Z,0.50
2022-11-21T00:39:29.284Z,0.40
2022-11-21T00:42:04.376Z,0.30
2022-11-21T00:44:39.257Z,0.33
2022-11-21T00:47:14.148Z,0.50
2022-11-21T00:49:49.069Z,0.40
2022-11-21T00:52:23.926Z,0.30
2022-11-21T00:54:58.871Z,0.40
2022-11-21T00:57:33.762Z,0.40
2022-11-21T01:00:10.022Z,0.40
2022-11-21T01:02:45.116Z,0.40
2022-11-21T01:05:20.006Z,0.40
2022-11-21T01:07:54.941Z,0.40
2022-11-21T01:10:29.817Z,0.30
2022-11-21T01:13:04.981Z,0.40
2022-11-21T01:15:39.853Z,0.40
2022-11-21T01:18:14.738Z,0.40
2022-11-21T01:20:49.641Z,0.37
2022-11-21T01:23:24.517Z,0.37
2022-11-21T01:26:04.743Z,0.40
2022-11-21T01:28:40.070Z,0.40
2022-11-21T01:31:25.712Z,0.40
2022-11-21T01:34:01.068Z,0.40
2022-11-21T01:36:35.991Z,0.37
2022-11-21T01:39:12.333Z,0.50
2022-11-21T01:41:47.222Z,0.50
2022-11-21T01:44:44.898Z,0.43
2022-11-21T01:47:22.559Z,0.50
2022-11-21T01:49:57.508Z,0.40
2022-11-21T01:52:33.991Z,0.50
2022-11-21T01:55:11.053Z,0.43
2022-11-21T01:57:48.972Z,0.40
2022-11-21T02:00:28.576Z,0.40
2022-11-21T02:03:10.901Z,0.40
2022-11-21T02:05:46.153Z,0.40
2022-11-21T02:08:23.207Z,0.50
2022-11-21T02:11:16.194Z,0.40
2022-11-21T02:13:51.334Z,0.50
2022-11-21T02:16:27.617Z,0.50
2022-11-21T02:19:02.712Z,0.50
2022-11-21T02:22:11.707Z,0.60
2022-11-21T02:24:58.472Z,0.40
2022-11-21T02:27:33.944Z,0.50
2022-11-21T02:30:10.624Z,0.50
2022-11-21T02:32:49.127Z,0.53
2022-11-21T02:35:24.807Z,0.50
2022-11-21T02:38:45.712Z,0.50
2022-11-21T02:41:26.888Z,0.63
2022-11-21T02:44:19.146Z,0.40
2022-11-21T02:46:54.087Z,0.40
2022-11-21T02:49:42.560Z,0.37
2022-11-21T02:52:17.575Z,0.30
2022-11-21T02:54:52.641Z,0.40
2022-11-21T02:57:27.491Z,0.40
2022-11-21T03:00:02.364Z,0.50
2022-11-21T03:02:37.928Z,0.40
2022-11-21T03:05:17.069Z,0.30
2022-11-21T03:07:52.146Z,0.40
2022-11-21T03:10:27.321Z,0.40
2022-11-21T03:13:02.266Z,0.40
2022-11-21T03:15:37.196Z,0.50
2022-11-21T03:18:12.156Z,0.43
2022-11-21T03:20:47.031Z,0.50
2022-11-21T03:23:21.908Z,0.40
2022-11-21T03:25:58.530Z,0.40
2022-11-21T03:28:33.395Z,0.30
2022-11-21T03:31:08.390Z,0.40
2022-11-21T03:33:43.260Z,0.40
2022-11-21T03:36:18.144Z,0.40
2022-11-21T03:38:56.116Z,0.37
2022-11-21T03:41:31.131Z,0.30
2022-11-21T03:44:09.899Z,0.50
2022-11-21T03:46:46.672Z,0.30
2022-11-21T03:49:21.591Z,0.40
2022-11-21T03:51:56.575Z,0.30
2022-11-21T03:54:31.447Z,0.30
2022-11-21T03:57:06.357Z,0.30
2022-11-21T03:59:41.260Z,0.30
2022-11-21T04:02:16.135Z,0.23
2022-11-21T04:04:51.003Z,0.30
2022-11-21T04:07:25.996Z,0.30
2022-11-21T04:10:00.856Z,0.30
2022-11-21T04:12:35.739Z,0.30
2022-11-21T04:15:13.932Z,0.40
2022-11-21T04:17:49.083Z,0.30
2022-11-21T04:20:23.926Z,0.40
2022-11-21T04:22:58.771Z,0.30
2022-11-21T04:25:33.682Z,0.40
2022-11-21T04:28:14.449Z,0.40
2022-11-21T04:30:52.492Z,0.40
2022-11-21T04:33:29.643Z,0.40
2022-11-21T04:36:04.744Z,0.40
2022-11-21T04:38:39.644Z,0.40
2022-11-21T04:41:14.532Z,0.47
2022-11-21T04:43:49.417Z,0.30
2022-11-21T04:46:24.296Z,0.50
2022-11-21T04:48:59.308Z,0.50
2022-11-21T04:51:34.210Z,0.40
2022-11-21T04:54:10.382Z,0.40
2022-11-21T04:56:46.351Z,0.40
2022-11-21T04:59:21.200Z,0.40
2022-11-21T05:01:56.081Z,0.50
2022-11-21T05:04:31.049Z,0.50
2022-11-21T05:07:06.175Z,0.40
2022-11-21T05:09:41.149Z,0.50
2022-11-21T05:12:34.311Z,0.40
2022-11-21T05:15:09.688Z,0.50
2022-11-21T05:17:44.751Z,0.50
2022-11-21T05:20:19.678Z,0.60
2022-11-21T05:22:54.507Z,0.40
2022-11-21T05:25:29.456Z,0.50
2022-11-21T05:28:04.423Z,0.40
2022-11-21T05:30:39.319Z,0.30
2022-11-21T05:33:14.215Z,0.40
2022-11-21T05:35:49.138Z,0.50
2022-11-21T05:38:24.079Z,0.60
2022-11-21T05:40:58.959Z,0.60
2022-11-21T05:43:45.925Z,0.40
2022-11-21T05:46:24.925Z,0.50
2022-11-21T05:48:59.823Z,0.57
2022-11-21T05:51:34.788Z,0.60
2022-11-21T05:54:16.381Z,0.60
2022-11-21T05:56:51.239Z,0.50
2022-11-21T05:59:26.185Z,0.50
2022-11-21T06:02:19.613Z,0.43
2022-11-21T06:04:54.590Z,0.63
2022-11-21T06:07:29.586Z,0.70
2022-11-21T06:10:05.033Z,0.80
2022-11-21T06:12:39.908Z,0.90
2022-11-21T06:15:14.888Z,0.70
2022-11-21T06:17:49.788Z,0.70
2022-11-21T06:20:24.721Z,0.90
2022-11-21T06:22:59.823Z,0.77
2022-11-21T06:25:34.850Z,0.73
2022-11-21T06:28:10.982Z,0.90
2022-11-21T06:30:46.321Z,1.03
2022-11-21T06:33:21.910Z,0.70
2022-11-21T06:35:56.835Z,0.60
2022-11-21T06:38:32.806Z,0.80
2022-11-21T06:41:19.495Z,0.90
2022-11-21T06:43:54.531Z,1.20
2022-11-21T06:46:29.746Z,1.00
2022-11-21T06:49:04.667Z,0.77
2022-11-21T06:51:39.594Z,0.80
2022-11-21T06:54:16.923Z,0.70
2022-11-21T06:56:53.878Z,0.63
2022-11-21T06:59:28.776Z,0.70
2022-11-21T07:02:03.669Z,0.73
2022-11-21T07:04:38.671Z,0.80
2022-11-21T07:07:13.657Z,0.90
2022-11-21T07:09:48.778Z,0.80
2022-11-21T07:12:42.495Z,0.67
2022-11-21T07:15:17.402Z,0.80
2022-11-21T07:17:52.348Z,0.97
2022-11-21T07:20:27.428Z,0.90
2022-11-21T07:23:02.425Z,1.03
2022-11-21T07:25:39.457Z,0.60
2022-11-21T07:28:14.755Z,0.70
2022-11-21T07:30:50.043Z,0.70
2022-11-21T07:33:25.179Z,0.70
2022-11-21T07:36:00.186Z,0.63
2022-11-21T07:38:35.178Z,0.80
2022-11-21T07:41:10.648Z,0.80
2022-11-21T07:43:45.512Z,0.90
2022-11-21T07:46:20.434Z,0.90
2022-11-21T07:48:57.372Z,1.00
2022-11-21T07:51:35.605Z,0.90
2022-11-21T07:54:10.496Z,1.27
2022-11-21T07:56:45.461Z,0.90
2022-11-21T07:59:20.487Z,0.97
2022-11-21T08:01:55.574Z,0.80
2022-11-21T08:04:30.714Z,1.20
2022-11-21T08:07:06.054Z,1.03
2022-11-21T08:09:41.407Z,1.10
2022-11-21T08:12:16.860Z,1.00
2022-11-21T08:14:51.790Z,1.10
2022-11-21T08:17:28.514Z,0.90
2022-11-21T08:20:04.330Z,1.03
2022-11-21T08:22:43.634Z,1.00
2022-11-21T08:25:18.635Z,1.00
2022-11-21T08:27:57.544Z,0.80
2022-11-21T08:30:34.328Z,1.00
2022-11-21T08:33:09.219Z,0.90
2022-11-21T08:35:44.258Z,1.00
2022-11-21T08:38:19.147Z,0.90
2022-11-21T08:41:17.614Z,0.93
2022-11-21T08:43:52.718Z,0.90
2022-11-21T08:46:28.236Z,0.90
2022-11-21T08:49:04.709Z,1.03
2022-11-21T08:51:40.047Z,2.50
2022-11-21T08:54:19.015Z,0.93
2022-11-21T08:56:54.023Z,0.90
2022-11-21T08:59:29.009Z,0.80
2022-11-21T09:02:04.143Z,0.77
2022-11-21T09:04:39.168Z,1.30
2022-11-21T09:07:14.136Z,0.80
2022-11-21T09:09:49.149Z,0.93
2022-11-21T09:12:24.432Z,0.80
2022-11-21T09:15:17.835Z,0.80
2022-11-21T09:18:04.595Z,0.80
2022-11-21T09:20:42.375Z,0.90
2022-11-21T09:23:17.692Z,1.10
2022-11-21T09:25:52.790Z,0.90
2022-11-21T09:28:27.658Z,0.90
2022-11-21T09:31:03.909Z,0.80
2022-11-21T09:33:39.454Z,0.90
2022-11-21T09:36:14.410Z,0.90
2022-11-21T09:38:53.107Z,0.73
2022-11-21T09:41:52.524Z,0.70
2022-11-21T09:45:21.179Z,0.67
2022-11-21T09:47:56.136Z,0.70
2022-11-21T09:50:42.700Z,0.70
2022-11-21T09:53:36.790Z,0.70
2022-11-21T09:56:16.407Z,1.00
2022-11-21T09:59:25.561Z,0.80
2022-11-21T10:02:00.923Z,0.80
2022-11-21T10:04:36.927Z,1.07
2022-11-21T10:07:15.041Z,0.83
2022-11-21T10:10:11.281Z,0.60
2022-11-21T10:12:58.198Z,1.13
2022-11-21T10:15:58.615Z,0.90
2022-11-21T10:19:01.198Z,0.60
2022-11-21T10:21:49.795Z,0.80
2022-11-21T10:24:48.189Z,0.70
2022-11-21T10:27:36.731Z,0.60
2022-11-21T10:30:20.607Z,0.97
2022-11-21T10:33:04.452Z,0.70
2022-11-21T10:35:48.629Z,0.70
2022-11-21T10:38:26.875Z,0.80
2022-11-21T10:41:17.455Z,0.80
2022-11-21T10:44:30.302Z,0.90
2022-11-21T10:47:28.479Z,0.70
2022-11-21T10:50:29.120Z,0.90
2022-11-21T10:53:41.480Z,0.90
2022-11-21T10:56:20.381Z,1.00
2022-11-21T10:58:59.208Z,0.70
2022-11-21T11:01:35.566Z,0.70
2022-11-21T11:07:24.430Z,0.73
2022-11-21T11:10:28.204Z,0.90
2022-11-21T11:13:45.872Z,1.63
2022-11-21T11:16:22.698Z,1.40
2022-11-21T11:19:24.375Z,1.03
2022-11-21T11:22:04.790Z,0.80
2022-11-21T11:24:55.086Z,1.00
2022-11-21T11:27:37.398Z,0.80
2022-11-21T11:30:17.538Z,0.97
2022-11-21T11:32:52.592Z,0.80
2022-11-21T11:35:33.344Z,0.90
2022-11-21T11:38:13.110Z,0.90
2022-11-21T11:40:48.144Z,2.37
2022-11-21T11:43:59.688Z,1.00
2022-11-21T11:47:30.472Z,0.83
2022-11-21T11:50:16.836Z,0.90
2022-11-21T11:53:01.272Z,1.23
2022-11-21T11:55:57.581Z,0.80
2022-11-21T11:58:53.863Z,0.70
2022-11-21T12:01:43.465Z,0.70
2022-11-21T12:04:21.429Z,0.70
2022-11-21T12:10:58.095Z,0.80
2022-11-21T12:13:34.975Z,0.60
2022-11-21T12:16:14.455Z,0.70
2022-11-21T12:19:14.177Z,0.60
2022-11-21T12:21:49.205Z,0.63
2022-11-21T12:24:24.094Z,0.60
2022-11-21T12:27:21.474Z,0.60
2022-11-21T12:30:24.965Z,0.60
2022-11-21T12:33:17.620Z,0.60
2022-11-21T12:36:28.406Z,0.93
2022-11-21T12:39:59.900Z,0.60
2022-11-21T12:42:51.684Z,0.77
2022-11-21T12:45:32.207Z,0.70
2022-11-21T12:48:37.809Z,0.70
2022-11-21T12:52:04.987Z,0.80
2022-11-21T12:55:04.682Z,0.60
2022-11-21T12:57:56.745Z,0.80
2022-11-21T13:01:15.453Z,0.60
2022-11-21T13:04:08.708Z,0.60
2022-11-21T13:06:48.170Z,0.60
2022-11-21T13:09:27.394Z,0.90
2022-11-21T13:12:35.219Z,0.60
2022-11-21T13:15:35.494Z,0.70
2022-11-21T13:18:48.199Z,0.50
2022-11-21T13:21:46.027Z,0.67
2022-11-21T13:24:53.179Z,1.07
2022-11-21T13:27:43.359Z,0.70
2022-11-21T13:30:22.209Z,0.70
2022-11-21T13:32:57.325Z,0.70
2022-11-21T13:36:10.626Z,0.70
2022-11-21T13:38:51.202Z,0.63
2022-11-21T13:41:53.360Z,0.50
2022-11-21T13:44:34.048Z,0.60
2022-11-21T13:47:12.218Z,0.60
2022-11-21T13:50:03.851Z,0.70
2022-11-21T13:52:59.694Z,0.60
2022-11-21T13:55:59.630Z,0.70
2022-11-21T13:59:13.106Z,0.80
2022-11-21T14:02:04.626Z,0.90
2022-11-21T14:05:33.559Z,0.63
2022-11-21T14:08:19.669Z,0.80
2022-11-21T14:10:58.335Z,0.80
2022-11-21T14:13:38.018Z,0.80
2022-11-21T14:16:41.863Z,0.83
2022-11-21T14:19:20.642Z,0.80
2022-11-21T14:21:55.675Z,0.70
2022-11-21T14:24:30.800Z,0.70
2022-11-21T14:27:07.108Z,0.77
2022-11-21T14:29:42.042Z,0.70
2022-11-21T14:32:17.124Z,0.60
2022-11-21T14:34:52.009Z,0.73
2022-11-21T14:37:26.899Z,0.70
2022-11-21T14:40:04.763Z,0.70
2022-11-21T14:42:39.814Z,0.83
2022-11-21T14:45:23.913Z,0.77
2022-11-21T14:47:58.841Z,0.70
2022-11-21T14:50:35.159Z,1.10
2022-11-21T14:53:12.098Z,0.83
2022-11-21T14:55:54.639Z,0.90
2022-11-21T14:58:31.833Z,0.80
2022-11-21T15:01:22.382Z,0.90
2022-11-21T15:04:02.520Z,1.00
2022-11-21T15:06:43.412Z,1.00
2022-11-21T15:12:21.400Z,0.80
2022-11-21T15:15:25.497Z,1.10
2022-11-21T15:18:26.480Z,1.20
2022-11-21T15:21:02.772Z,0.90
2022-11-21T15:23:40.157Z,1.00
2022-11-21T15:26:36.335Z,2.33
2022-11-21T15:29:23.066Z,0.73
2022-11-21T15:32:16.855Z,0.90
2022-11-21T15:34:54.489Z,0.97
2022-11-21T15:37:34.169Z,1.20
2022-11-21T15:40:20.065Z,1.00
2022-11-21T15:42:55.053Z,0.90
2022-11-21T15:45:30.028Z,1.07
2022-11-21T15:48:07.070Z,1.10
2022-11-21T15:50:41.943Z,0.80
2022-11-21T15:53:19.297Z,1.10
2022-11-21T15:55:54.669Z,1.00
2022-11-21T15:58:29.660Z,1.23
2022-11-21T16:01:04.763Z,1.10
2022-11-21T16:03:39.941Z,1.07
2022-11-21T16:06:15.361Z,1.63
2022-11-21T16:08:50.304Z,1.63
2022-11-21T16:11:31.050Z,1.47
2022-11-21T16:14:07.949Z,1.40
2022-11-21T16:16:45.047Z,1.57
2022-11-21T16:19:20.081Z,1.67
2022-11-21T16:21:55.017Z,2.37
2022-11-21T16:24:30.007Z,2.83
2022-11-21T16:27:04.856Z,2.27
2022-11-21T16:29:39.891Z,1.77
2022-11-21T16:32:14.822Z,2.57
2022-11-21T16:34:51.524Z,1.60
2022-11-21T16:37:26.440Z,1.87
2022-11-21T16:40:01.381Z,1.90
2022-11-21T16:42:36.347Z,1.97
2022-11-21T16:45:11.487Z,1.90
2022-11-21T16:47:48.991Z,1.90
2022-11-21T16:50:24.097Z,1.70
2022-11-21T16:52:59.181Z,1.83
2022-11-21T16:55:34.308Z,2.13
2022-11-21T16:58:09.573Z,2.17
2022-11-21T17:00:44.580Z,2.37
2022-11-21T17:03:19.535Z,1.90
2022-11-21T17:05:58.892Z,2.00
2022-11-21T17:08:35.006Z,2.07
2022-11-21T17:11:29.068Z,1.47
2022-11-21T17:14:06.382Z,2.00
2022-11-21T17:16:41.794Z,1.80
2022-11-21T17:19:17.100Z,1.70
2022-11-21T17:21:52.774Z,1.80
2022-11-21T17:24:28.034Z,2.30
2022-11-21T17:27:03.224Z,3.93
2022-11-21T17:29:38.130Z,2.80
2022-11-21T17:32:12.982Z,3.10
2022-11-21T17:34:47.986Z,2.80
2022-11-21T17:37:23.023Z,2.37
2022-11-21T17:39:57.893Z,2.63
2022-11-21T17:42:33.017Z,2.60
2022-11-21T17:45:08.719Z,2.50
2022-11-21T17:47:44.050Z,3.07
2022-11-21T17:50:18.960Z,2.50
2022-11-21T17:52:54.011Z,2.77
2022-11-21T17:55:28.878Z,2.63
2022-11-21T17:58:03.789Z,2.70
2022-11-21T18:00:38.660Z,2.87
2022-11-21T18:03:13.550Z,2.20
2022-11-21T18:05:51.606Z,2.30
2022-11-21T18:08:29.847Z,2.30
2022-11-21T18:11:06.961Z,3.57
2022-11-21T18:13:42.462Z,3.57
2022-11-21T18:16:24.157Z,4.93
2022-11-21T18:18:59.892Z,4.30
2022-11-21T18:21:38.260Z,3.17
2022-11-21T18:24:13.168Z,3.10
2022-11-21T18:26:48.132Z,3.10
2022-11-21T18:29:40.011Z,3.70
2022-11-21T18:32:14.916Z,3.23
2022-11-21T18:34:49.800Z,3.80
2022-11-21T18:37:24.675Z,3.60
2022-11-21T18:39:59.654Z,3.53
2022-11-21T18:42:35.015Z,3.57
2022-11-21T18:45:10.091Z,4.27
2022-11-21T18:47:47.880Z,3.53
2022-11-21T18:50:23.305Z,4.00
2022-11-21T18:52:58.326Z,3.43
2022-11-21T18:55:33.259Z,3.47
2022-11-21T18:58:08.225Z,4.67
2022-11-21T19:00:43.293Z,3.43
2022-11-21T19:03:19.786Z,3.83
2022-11-21T19:05:54.967Z,3.27
2022-11-21T19:08:30.039Z,3.70
2022-11-21T19:11:06.460Z,3.73
2022-11-21T19:13:42.009Z,3.20
2022-11-21T19:16:21.684Z,2.87
2022-11-21T19:19:33.603Z,2.80
2022-11-21T19:21:51.983Z,2.90
2022-11-21T19:24:26.900Z,2.67
2022-11-21T19:27:01.909Z,2.47
2022-11-21T19:29:36.795Z,2.30
2022-11-21T19:32:11.705Z,2.63
2022-11-21T19:34:46.547Z,2.47
2022-11-21T19:37:21.501Z,3.77
2022-11-21T19:39:56.364Z,3.63
2022-11-21T19:42:31.641Z,3.93
2022-11-21T19:45:07.710Z,3.20
2022-11-21T19:47:43.124Z,3.30
2022-11-21T19:50:18.123Z,3.10
2022-11-21T19:52:52.990Z,3.60
2022-11-21T19:55:27.837Z,4.13
2022-11-21T19:58:02.768Z,3.00
2022-11-21T20:00:37.644Z,3.50
2022-11-21T20:03:12.531Z,3.80
2022-11-21T20:05:47.421Z,3.60
2022-11-21T20:08:22.386Z,3.47
2022-11-21T20:11:12.177Z,3.50
2022-11-21T20:13:47.874Z,4.10
2022-11-21T20:16:29.669Z,3.33
2022-11-21T20:19:13.031Z,4.10
2022-11-21T20:21:48.638Z,3.80
2022-11-21T20:24:23.547Z,5.20
2022-11-21T20:26:59.301Z,4.63
2022-11-21T20:29:34.394Z,4.10
2022-11-21T20:32:09.310Z,3.60
2022-11-21T20:34:44.355Z,3.60
2022-11-21T20:37:19.268Z,3.83
2022-11-21T20:39:54.160Z,3.50
2022-11-21T20:42:29.085Z,3.17
2022-11-21T20:47:59.236Z,2.93
2022-11-21T20:51:25.212Z,3.50
2022-11-21T20:53:51.477Z,2.70
2022-11-21T20:56:25.292Z,3.20
2022-11-21T20:59:00.935Z,2.70
2022-11-21T21:01:35.892Z,3.73
2022-11-21T21:04:11.409Z,2.77
2022-11-21T21:06:46.287Z,3.47
2022-11-21T21:09:21.275Z,2.70
2022-11-21T21:11:56.196Z,2.90
2022-11-21T21:14:31.130Z,3.03
2022-11-21T21:17:06.167Z,3.00
2022-11-21T21:19:41.031Z,3.70
2022-11-21T21:22:15.979Z,3.40
2022-11-21T21:24:50.886Z,4.03
2022-11-21T21:27:25.848Z,3.90
2022-11-21T21:30:00.953Z,4.50
2022-11-21T21:32:35.819Z,5.03
2022-11-21T21:35:11.164Z,3.73
2022-11-21T21:37:46.427Z,4.13
2022-11-21T21:40:21.363Z,4.17
2022-11-21T21:42:56.208Z,3.83
2022-11-21T21:45:31.084Z,4.23
2022-11-21T21:48:06.389Z,3.93
2022-11-21T21:50:41.257Z,4.20
2022-11-21T21:53:16.142Z,4.63
2022-11-21T21:55:51.041Z,4.60
2022-11-21T21:58:26.318Z,4.60
2022-11-21T22:01:05.651Z,4.13
2022-11-21T22:03:42.401Z,4.37
2022-11-21T22:06:18.379Z,4.40
2022-11-21T22:08:55.068Z,4.10
2022-11-21T22:11:33.226Z,4.43
2022-11-21T22:14:13.708Z,4.83
2022-11-21T22:16:48.635Z,4.30
2022-11-21T22:19:23.471Z,4.50
2022-11-21T22:21:58.351Z,3.27
2022-11-21T22:24:33.224Z,3.97
2022-11-21T22:27:08.083Z,3.90
2022-11-21T22:29:42.995Z,3.30
2022-11-21T22:32:19.827Z,3.50
2022-11-21T22:34:55.087Z,3.17
2022-11-21T22:37:30.249Z,3.50
2022-11-21T22:40:05.883Z,4.00
2022-11-21T22:42:40.739Z,2.97
2022-11-21T22:45:15.581Z,1.90
2022-11-21T22:47:50.691Z,1.80
2022-11-21T22:50:25.600Z,1.70
2022-11-21T22:53:00.637Z,2.00
2022-11-21T22:55:35.479Z,2.03
2022-11-21T22:58:10.393Z,1.90
2022-11-21T23:00:45.246Z,1.70
2022-11-21T23:03:20.084Z,1.87
2022-11-21T23:06:02.989Z,2.10
2022-11-21T23:08:40.182Z,1.90
2022-11-21T23:11:15.892Z,1.60
2022-11-21T23:13:52.137Z,1.50
2022-11-21T23:16:27.145Z,1.87
2022-11-21T23:19:02.355Z,1.63
2022-11-21T23:21:37.275Z,1.90
2022-11-21T23:24:13.009Z,1.80
2022-11-21T23:26:47.992Z,2.13
2022-11-21T23:29:22.855Z,2.27
2022-11-21T23:31:57.726Z,2.90
2022-11-21T23:34:32.590Z,3.00
2022-11-21T23:37:07.479Z,3.17
2022-11-21T23:39:42.924Z,3.23
2022-11-21T23:42:17.814Z,4.00
2022-11-21T23:44:52.714Z,3.37
2022-11-21T23:47:27.730Z,2.90
2022-11-21T23:50:02.612Z,3.87
2022-11-21T23:52:37.517Z,3.40
2022-11-21T23:55:12.509Z,3.33
2022-11-21T23:57:48.812Z,3.63
